sensor_id;sensor_type;location;lat;lon;timestamp;P1;durP1;ratioP1;P2;durP2;ratioP2
71106;SDS011;58763;47.982;11.516;2022-11-02T00:01:45;4.78;;;2.00;;
71106;SDS011;58763;47.982;11.516;2022-11-02T00:04:11;6.35;;;2.10;;
71106;SDS011;58763;47.982;11.516;2022-11-02T00:06:36;4.75;;;2.00;;
71106;SDS011;58763;47.982;11.516;2022-11-02T00:09:02;6.55;;;1.88;;
71106;SDS011;58763;47.982;11.516;2022-11-02T00:11:28;4.82;;;2.00;;
71106;SDS011;58763;47.982;11.516;2022-11-02T00:13:53;6.25;;;1.90;;
71106;SDS011;58763;47.982;11.516;2022-11-02T00:16:19;4.82;;;1.70;;
71106;SDS011;58763;47.982;11.516;2022-11-02T00:18:47;4.85;;;1.90;;
71106;SDS011;58763;47.982;11.516;2022-11-02T00:21:16;7.13;;;2.10;;
71106;SDS011;58763;47.982;11.516;2022-11-02T00:23:44;6.65;;;2.22;;
71106;SDS011;58763;47.982;11.516;2022-11-02T00:26:10;6.40;;;2.05;;
71106;SDS011;58763;47.982;11.516;2022-11-02T00:28:36;6.35;;;1.92;;
71106;SDS011;58763;47.982;11.516;2022-11-02T00:31:02;5.03;;;2.28;;
71106;SDS011;58763;47.982;11.516;2022-11-02T00:33:27;5.95;;;2.38;;
71106;SDS011;58763;47.982;11.516;2022-11-02T00:35:53;7.20;;;3.00;;
71106;SDS011;58763;47.982;11.516;2022-11-02T00:38:20;7.40;;;3.10;;
71106;SDS011;58763;47.982;11.516;2022-11-02T00:40:45;7.50;;;2.67;;
71106;SDS011;58763;47.982;11.516;2022-11-02T00:43:11;6.88;;;2.53;;
71106;SDS011;58763;47.982;11.516;2022-11-02T00:45:36;5.38;;;2.30;;
71106;SDS011;58763;47.982;11.516;2022-11-02T00:48:02;6.47;;;2.50;;
71106;SDS011;58763;47.982;11.516;2022-11-02T00:50:28;6.63;;;2.47;;
71106;SDS011;58763;47.982;11.516;2022-11-02T00:52:54;5.15;;;2.20;;
71106;SDS011;58763;47.982;11.516;2022-11-02T00:55:19;6.10;;;2.13;;
71106;SDS011;58763;47.982;11.516;2022-11-02T00:57:45;8.32;;;2.90;;
71106;SDS011;58763;47.982;11.516;2022-11-02T01:00:11;8.68;;;2.40;;
71106;SDS011;58763;47.982;11.516;2022-11-02T01:02:38;5.35;;;2.25;;
71106;SDS011;58763;47.982;11.516;2022-11-02T01:05:04;8.90;;;2.40;;
71106;SDS011;58763;47.982;11.516;2022-11-02T01:07:30;4.90;;;1.90;;
71106;SDS011;58763;47.982;11.516;2022-11-02T01:09:55;5.57;;;2.10;;
71106;SDS011;58763;47.982;11.516;2022-11-02T01:12:21;6.68;;;1.90;;
71106;SDS011;58763;47.982;11.516;2022-11-02T01:14:47;7.07;;;1.65;;
71106;SDS011;58763;47.982;11.516;2022-11-02T01:17:13;6.20;;;1.90;;
71106;SDS011;58763;47.982;11.516;2022-11-02T01:19:39;6.50;;;1.80;;
71106;SDS011;58763;47.982;11.516;2022-11-02T01:22:05;4.90;;;1.85;;
71106;SDS011;58763;47.982;11.516;2022-11-02T01:24:31;5.78;;;1.70;;
71106;SDS011;58763;47.982;11.516;2022-11-02T01:26:56;6.63;;;1.67;;
71106;SDS011;58763;47.982;11.516;2022-11-02T01:29:22;5.15;;;1.65;;
71106;SDS011;58763;47.982;11.516;2022-11-02T01:31:47;4.22;;;1.80;;
71106;SDS011;58763;47.982;11.516;2022-11-02T01:34:13;5.10;;;1.88;;
71106;SDS011;58763;47.982;11.516;2022-11-02T01:36:39;4.72;;;1.90;;
71106;SDS011;58763;47.982;11.516;2022-11-02T01:39:05;4.97;;;1.80;;
71106;SDS011;58763;47.982;11.516;2022-11-02T01:41:31;4.50;;;1.77;;
71106;SDS011;58763;47.982;11.516;2022-11-02T01:43:57;5.82;;;1.70;;
71106;SDS011;58763;47.982;11.516;2022-11-02T01:46:29;4.55;;;1.90;;
71106;SDS011;58763;47.982;11.516;2022-11-02T01:49:11;5.45;;;1.80;;
71106;SDS011;58763;47.982;11.516;2022-11-02T01:54:19;5.00;;;1.92;;
71106;SDS011;58763;47.982;11.516;2022-11-02T01:56:49;6.20;;;2.30;;
71106;SDS011;58763;47.982;11.516;2022-11-02T01:59:22;6.18;;;2.00;;
71106;SDS011;58763;47.982;11.516;2022-11-02T02:01:53;5.40;;;2.00;;
71106;SDS011;58763;47.982;11.516;2022-11-02T02:04:18;6.88;;;2.50;;
71106;SDS011;58763;47.982;11.516;2022-11-02T02:06:45;7.28;;;2.10;;
71106;SDS011;58763;47.982;11.516;2022-11-02T02:09:10;4.20;;;1.85;;
71106;SDS011;58763;47.982;11.516;2022-11-02T02:11:39;5.25;;;1.88;;
71106;SDS011;58763;47.982;11.516;2022-11-02T02:14:05;7.38;;;1.80;;
71106;SDS011;58763;47.982;11.516;2022-11-02T02:25:37;6.07;;;2.10;;
71106;SDS011;58763;47.982;11.516;2022-11-02T02:31:07;6.78;;;2.13;;
71106;SDS011;58763;47.982;11.516;2022-11-02T02:36:43;6.78;;;2.00;;
71106;SDS011;58763;47.982;11.516;2022-11-02T02:39:20;4.20;;;2.00;;
71106;SDS011;58763;47.982;11.516;2022-11-02T02:42:11;7.00;;;2.10;;
71106;SDS011;58763;47.982;11.516;2022-11-02T02:44:52;5.70;;;1.90;;
71106;SDS011;58763;47.982;11.516;2022-11-02T02:47:26;7.60;;;1.90;;
71106;SDS011;58763;47.982;11.516;2022-11-02T02:49:57;8.07;;;2.17;;
71106;SDS011;58763;47.982;11.516;2022-11-02T02:52:30;4.30;;;1.73;;
71106;SDS011;58763;47.982;11.516;2022-11-02T02:54:58;6.40;;;1.92;;
71106;SDS011;58763;47.982;11.516;2022-11-02T02:57:26;5.00;;;1.77;;
71106;SDS011;58763;47.982;11.516;2022-11-02T02:59:54;5.78;;;2.00;;
71106;SDS011;58763;47.982;11.516;2022-11-02T03:02:22;6.00;;;1.95;;
71106;SDS011;58763;47.982;11.516;2022-11-02T03:04:49;5.78;;;2.13;;
71106;SDS011;58763;47.982;11.516;2022-11-02T03:07:17;5.90;;;2.03;;
71106;SDS011;58763;47.982;11.516;2022-11-02T03:15:42;5.13;;;1.90;;
71106;SDS011;58763;47.982;11.516;2022-11-02T03:23:57;6.63;;;2.40;;
71106;SDS011;58763;47.982;11.516;2022-11-02T03:26:32;6.55;;;2.40;;
71106;SDS011;58763;47.982;11.516;2022-11-02T03:32:19;7.68;;;2.30;;
71106;SDS011;58763;47.982;11.516;2022-11-02T03:34:58;6.57;;;2.10;;
71106;SDS011;58763;47.982;11.516;2022-11-02T03:40:13;6.35;;;2.50;;
71106;SDS011;58763;47.982;11.516;2022-11-02T03:42:43;7.95;;;2.60;;
71106;SDS011;58763;47.982;11.516;2022-11-02T03:45:13;6.40;;;2.63;;
71106;SDS011;58763;47.982;11.516;2022-11-02T03:50:10;6.30;;;2.88;;
71106;SDS011;58763;47.982;11.516;2022-11-02T03:52:41;9.07;;;2.85;;
71106;SDS011;58763;47.982;11.516;2022-11-02T03:55:11;8.00;;;2.67;;
71106;SDS011;58763;47.982;11.516;2022-11-02T03:57:48;8.52;;;2.75;;
71106;SDS011;58763;47.982;11.516;2022-11-02T04:00:19;7.07;;;2.90;;
71106;SDS011;58763;47.982;11.516;2022-11-02T04:05:14;7.38;;;3.42;;
71106;SDS011;58763;47.982;11.516;2022-11-02T04:07:41;6.63;;;3.13;;
71106;SDS011;58763;47.982;11.516;2022-11-02T04:10:29;6.35;;;3.15;;
71106;SDS011;58763;47.982;11.516;2022-11-02T04:12:54;10.02;;;3.13;;
71106;SDS011;58763;47.982;11.516;2022-11-02T04:15:38;7.85;;;3.13;;
71106;SDS011;58763;47.982;11.516;2022-11-02T04:18:04;7.28;;;2.85;;
71106;SDS011;58763;47.982;11.516;2022-11-02T04:20:51;8.50;;;3.38;;
71106;SDS011;58763;47.982;11.516;2022-11-02T04:23:17;6.63;;;3.10;;
71106;SDS011;58763;47.982;11.516;2022-11-02T04:26:02;11.80;;;3.00;;
71106;SDS011;58763;47.982;11.516;2022-11-02T04:28:28;8.50;;;3.15;;
71106;SDS011;58763;47.982;11.516;2022-11-02T04:30:56;6.78;;;2.75;;
71106;SDS011;58763;47.982;11.516;2022-11-02T04:33:22;10.32;;;3.05;;
71106;SDS011;58763;47.982;11.516;2022-11-02T04:36:00;7.55;;;2.70;;
71106;SDS011;58763;47.982;11.516;2022-11-02T04:38:30;7.35;;;2.88;;
71106;SDS011;58763;47.982;11.516;2022-11-02T04:41:05;8.48;;;2.70;;
71106;SDS011;58763;47.982;11.516;2022-11-02T04:43:54;5.28;;;2.60;;
71106;SDS011;58763;47.982;11.516;2022-11-02T04:46:20;9.00;;;2.80;;
71106;SDS011;58763;47.982;11.516;2022-11-02T04:48:46;6.28;;;2.65;;
71106;SDS011;58763;47.982;11.516;2022-11-02T04:51:12;6.78;;;2.97;;
71106;SDS011;58763;47.982;11.516;2022-11-02T04:53:38;6.43;;;2.88;;
71106;SDS011;58763;47.982;11.516;2022-11-02T04:56:03;9.73;;;3.60;;
71106;SDS011;58763;47.982;11.516;2022-11-02T04:58:29;8.45;;;3.30;;
71106;SDS011;58763;47.982;11.516;2022-11-02T05:00:55;7.93;;;2.92;;
71106;SDS011;58763;47.982;11.516;2022-11-02T05:03:20;7.22;;;3.08;;
71106;SDS011;58763;47.982;11.516;2022-11-02T05:05:46;7.93;;;3.30;;
71106;SDS011;58763;47.982;11.516;2022-11-02T05:08:11;7.47;;;3.22;;
71106;SDS011;58763;47.982;11.516;2022-11-02T05:10:37;8.40;;;3.35;;
71106;SDS011;58763;47.982;11.516;2022-11-02T05:13:03;6.20;;;2.75;;
71106;SDS011;58763;47.982;11.516;2022-11-02T05:15:28;7.63;;;3.08;;
71106;SDS011;58763;47.982;11.516;2022-11-02T05:17:54;6.68;;;2.90;;
71106;SDS011;58763;47.982;11.516;2022-11-02T05:20:19;8.05;;;2.88;;
71106;SDS011;58763;47.982;11.516;2022-11-02T05:22:45;5.05;;;2.55;;
71106;SDS011;58763;47.982;11.516;2022-11-02T05:25:11;9.18;;;3.03;;
71106;SDS011;58763;47.982;11.516;2022-11-02T05:27:37;7.20;;;3.22;;
71106;SDS011;58763;47.982;11.516;2022-11-02T05:30:04;13.38;;;2.92;;
71106;SDS011;58763;47.982;11.516;2022-11-02T05:32:30;6.70;;;2.75;;
71106;SDS011;58763;47.982;11.516;2022-11-02T05:34:56;8.50;;;3.17;;
71106;SDS011;58763;47.982;11.516;2022-11-02T05:37:21;7.80;;;2.65;;
71106;SDS011;58763;47.982;11.516;2022-11-02T05:39:47;7.68;;;2.30;;
71106;SDS011;58763;47.982;11.516;2022-11-02T05:42:13;6.72;;;2.80;;
71106;SDS011;58763;47.982;11.516;2022-11-02T05:44:39;10.30;;;2.53;;
71106;SDS011;58763;47.982;11.516;2022-11-02T05:47:04;8.57;;;3.13;;
71106;SDS011;58763;47.982;11.516;2022-11-02T05:49:30;8.15;;;3.10;;
71106;SDS011;58763;47.982;11.516;2022-11-02T05:51:56;7.43;;;2.80;;
71106;SDS011;58763;47.982;11.516;2022-11-02T05:54:21;8.02;;;3.20;;
71106;SDS011;58763;47.982;11.516;2022-11-02T05:56:47;7.45;;;2.70;;
71106;SDS011;58763;47.982;11.516;2022-11-02T05:59:13;8.18;;;3.00;;
71106;SDS011;58763;47.982;11.516;2022-11-02T06:01:38;6.10;;;3.03;;
71106;SDS011;58763;47.982;11.516;2022-11-02T06:04:04;9.13;;;3.47;;
71106;SDS011;58763;47.982;11.516;2022-11-02T06:06:30;9.23;;;3.13;;
71106;SDS011;58763;47.982;11.516;2022-11-02T06:08:56;6.63;;;3.13;;
71106;SDS011;58763;47.982;11.516;2022-11-02T06:11:21;6.65;;;3.20;;
71106;SDS011;58763;47.982;11.516;2022-11-02T06:13:48;7.75;;;3.40;;
71106;SDS011;58763;47.982;11.516;2022-11-02T06:16:15;7.97;;;3.03;;
71106;SDS011;58763;47.982;11.516;2022-11-02T06:18:41;7.55;;;2.95;;
71106;SDS011;58763;47.982;11.516;2022-11-02T06:21:07;6.70;;;3.40;;
71106;SDS011;58763;47.982;11.516;2022-11-02T06:23:33;6.90;;;3.10;;
71106;SDS011;58763;47.982;11.516;2022-11-02T06:25:59;9.60;;;3.30;;
71106;SDS011;58763;47.982;11.516;2022-11-02T06:28:25;8.60;;;3.15;;
71106;SDS011;58763;47.982;11.516;2022-11-02T06:30:51;5.90;;;2.92;;
71106;SDS011;58763;47.982;11.516;2022-11-02T06:33:18;8.25;;;3.03;;
71106;SDS011;58763;47.982;11.516;2022-11-02T06:35:44;7.07;;;3.08;;
71106;SDS011;58763;47.982;11.516;2022-11-02T06:38:14;7.82;;;3.38;;
71106;SDS011;58763;47.982;11.516;2022-11-02T06:40:40;7.68;;;3.33;;
71106;SDS011;58763;47.982;11.516;2022-11-02T06:43:06;9.82;;;2.92;;
71106;SDS011;58763;47.982;11.516;2022-11-02T06:45:32;12.57;;;3.28;;
71106;SDS011;58763;47.982;11.516;2022-11-02T06:47:57;8.63;;;3.20;;
71106;SDS011;58763;47.982;11.516;2022-11-02T06:50:23;8.35;;;3.33;;
71106;SDS011;58763;47.982;11.516;2022-11-02T06:52:49;8.10;;;3.53;;
71106;SDS011;58763;47.982;11.516;2022-11-02T06:55:15;7.13;;;3.28;;
71106;SDS011;58763;47.982;11.516;2022-11-02T06:57:42;12.02;;;3.15;;
71106;SDS011;58763;47.982;11.516;2022-11-02T07:00:12;5.65;;;3.03;;
71106;SDS011;58763;47.982;11.516;2022-11-02T07:02:42;8.55;;;2.90;;
71106;SDS011;58763;47.982;11.516;2022-11-02T07:05:08;7.07;;;2.75;;
71106;SDS011;58763;47.982;11.516;2022-11-02T07:07:34;9.63;;;2.88;;
71106;SDS011;58763;47.982;11.516;2022-11-02T07:09:59;9.73;;;2.95;;
71106;SDS011;58763;47.982;11.516;2022-11-02T07:12:24;8.57;;;3.50;;
71106;SDS011;58763;47.982;11.516;2022-11-02T07:14:50;8.73;;;2.97;;
71106;SDS011;58763;47.982;11.516;2022-11-02T07:17:16;6.97;;;3.13;;
71106;SDS011;58763;47.982;11.516;2022-11-02T07:19:41;6.82;;;3.25;;
71106;SDS011;58763;47.982;11.516;2022-11-02T07:22:07;6.20;;;3.03;;
71106;SDS011;58763;47.982;11.516;2022-11-02T07:24:32;7.80;;;2.67;;
71106;SDS011;58763;47.982;11.516;2022-11-02T07:26:58;8.63;;;3.28;;
71106;SDS011;58763;47.982;11.516;2022-11-02T07:29:23;7.00;;;3.20;;
71106;SDS011;58763;47.982;11.516;2022-11-02T07:31:49;7.72;;;2.88;;
71106;SDS011;58763;47.982;11.516;2022-11-02T07:34:14;9.90;;;3.70;;
71106;SDS011;58763;47.982;11.516;2022-11-02T07:36:40;6.40;;;3.08;;
71106;SDS011;58763;47.982;11.516;2022-11-02T07:39:06;9.15;;;3.20;;
71106;SDS011;58763;47.982;11.516;2022-11-02T07:41:33;8.27;;;3.20;;
71106;SDS011;58763;47.982;11.516;2022-11-02T07:43:59;15.65;;;5.70;;
71106;SDS011;58763;47.982;11.516;2022-11-02T07:46:25;8.98;;;4.05;;
71106;SDS011;58763;47.982;11.516;2022-11-02T07:48:50;8.20;;;3.00;;
71106;SDS011;58763;47.982;11.516;2022-11-02T07:51:16;7.18;;;2.58;;
71106;SDS011;58763;47.982;11.516;2022-11-02T07:53:42;8.85;;;3.13;;
71106;SDS011;58763;47.982;11.516;2022-11-02T07:56:08;8.52;;;3.03;;
71106;SDS011;58763;47.982;11.516;2022-11-02T07:58:34;6.82;;;2.75;;
71106;SDS011;58763;47.982;11.516;2022-11-02T08:01:00;7.40;;;2.72;;
71106;SDS011;58763;47.982;11.516;2022-11-02T08:03:26;7.97;;;2.92;;
71106;SDS011;58763;47.982;11.516;2022-11-02T08:05:52;6.63;;;2.92;;
71106;SDS011;58763;47.982;11.516;2022-11-02T08:08:19;6.75;;;2.80;;
71106;SDS011;58763;47.982;11.516;2022-11-02T08:10:47;6.38;;;2.53;;
71106;SDS011;58763;47.982;11.516;2022-11-02T08:13:18;6.93;;;2.42;;
71106;SDS011;58763;47.982;11.516;2022-11-02T08:15:49;5.93;;;2.40;;
71106;SDS011;58763;47.982;11.516;2022-11-02T08:18:16;6.90;;;2.47;;
71106;SDS011;58763;47.982;11.516;2022-11-02T08:20:44;7.45;;;2.60;;
71106;SDS011;58763;47.982;11.516;2022-11-02T08:23:12;5.90;;;2.25;;
71106;SDS011;58763;47.982;11.516;2022-11-02T08:25:39;6.05;;;2.25;;
71106;SDS011;58763;47.982;11.516;2022-11-02T08:28:06;5.90;;;1.90;;
71106;SDS011;58763;47.982;11.516;2022-11-02T08:30:32;5.72;;;2.35;;
71106;SDS011;58763;47.982;11.516;2022-11-02T08:33:02;5.60;;;1.83;;
71106;SDS011;58763;47.982;11.516;2022-11-02T08:35:29;4.88;;;1.70;;
71106;SDS011;58763;47.982;11.516;2022-11-02T08:37:56;6.45;;;4.72;;
71106;SDS011;58763;47.982;11.516;2022-11-02T08:40:24;7.53;;;4.72;;
71106;SDS011;58763;47.982;11.516;2022-11-02T08:43:00;6.57;;;1.60;;
71106;SDS011;58763;47.982;11.516;2022-11-02T08:45:27;6.55;;;2.15;;
71106;SDS011;58763;47.982;11.516;2022-11-02T08:47:54;6.20;;;1.83;;
71106;SDS011;58763;47.982;11.516;2022-11-02T08:50:20;4.68;;;1.45;;
71106;SDS011;58763;47.982;11.516;2022-11-02T08:52:46;4.20;;;1.38;;
71106;SDS011;58763;47.982;11.516;2022-11-02T08:55:11;5.10;;;1.40;;
71106;SDS011;58763;47.982;11.516;2022-11-02T08:57:47;4.95;;;1.30;;
71106;SDS011;58763;47.982;11.516;2022-11-02T09:00:14;4.25;;;1.15;;
71106;SDS011;58763;47.982;11.516;2022-11-02T09:02:41;5.65;;;1.40;;
71106;SDS011;58763;47.982;11.516;2022-11-02T09:05:06;4.28;;;1.40;;
71106;SDS011;58763;47.982;11.516;2022-11-02T09:07:32;4.43;;;1.27;;
71106;SDS011;58763;47.982;11.516;2022-11-02T09:09:58;6.45;;;1.77;;
71106;SDS011;58763;47.982;11.516;2022-11-02T09:12:24;5.03;;;1.77;;
71106;SDS011;58763;47.982;11.516;2022-11-02T09:14:49;3.97;;;1.30;;
71106;SDS011;58763;47.982;11.516;2022-11-02T09:17:15;6.32;;;1.38;;
71106;SDS011;58763;47.982;11.516;2022-11-02T09:19:40;5.50;;;1.35;;
71106;SDS011;58763;47.982;11.516;2022-11-02T09:22:06;4.53;;;1.30;;
71106;SDS011;58763;47.982;11.516;2022-11-02T09:24:32;4.57;;;1.27;;
71106;SDS011;58763;47.982;11.516;2022-11-02T09:26:58;5.78;;;1.25;;
71106;SDS011;58763;47.982;11.516;2022-11-02T09:29:23;6.15;;;1.33;;
71106;SDS011;58763;47.982;11.516;2022-11-02T09:31:49;10.27;;;1.38;;
71106;SDS011;58763;47.982;11.516;2022-11-02T09:34:14;4.78;;;1.30;;
71106;SDS011;58763;47.982;11.516;2022-11-02T09:36:40;5.50;;;1.10;;
71106;SDS011;58763;47.982;11.516;2022-11-02T09:39:06;4.68;;;1.00;;
71106;SDS011;58763;47.982;11.516;2022-11-02T09:41:40;5.28;;;1.30;;
71106;SDS011;58763;47.982;11.516;2022-11-02T09:46:52;7.05;;;1.30;;
71106;SDS011;58763;47.982;11.516;2022-11-02T09:49:19;4.88;;;1.17;;
71106;SDS011;58763;47.982;11.516;2022-11-02T09:51:48;5.15;;;1.23;;
71106;SDS011;58763;47.982;11.516;2022-11-02T09:54:22;6.38;;;1.23;;
71106;SDS011;58763;47.982;11.516;2022-11-02T09:56:55;4.68;;;1.02;;
71106;SDS011;58763;47.982;11.516;2022-11-02T09:59:23;4.38;;;1.13;;
71106;SDS011;58763;47.982;11.516;2022-11-02T10:01:56;6.20;;;1.38;;
71106;SDS011;58763;47.982;11.516;2022-11-02T10:15:20;6.28;;;1.08;;
71106;SDS011;58763;47.982;11.516;2022-11-02T10:17:51;6.57;;;1.15;;
71106;SDS011;58763;47.982;11.516;2022-11-02T10:22:51;5.25;;;1.00;;
71106;SDS011;58763;47.982;11.516;2022-11-02T10:25:22;6.97;;;0.90;;
71106;SDS011;58763;47.982;11.516;2022-11-02T10:27:48;4.28;;;1.00;;
71106;SDS011;58763;47.982;11.516;2022-11-02T10:30:19;6.05;;;1.02;;
71106;SDS011;58763;47.982;11.516;2022-11-02T10:32:46;4.47;;;0.95;;
71106;SDS011;58763;47.982;11.516;2022-11-02T10:35:26;5.07;;;0.65;;
71106;SDS011;58763;47.982;11.516;2022-11-02T10:40:48;4.55;;;1.02;;
71106;SDS011;58763;47.982;11.516;2022-11-02T10:43:30;5.07;;;1.00;;
71106;SDS011;58763;47.982;11.516;2022-11-02T10:46:28;3.70;;;0.90;;
71106;SDS011;58763;47.982;11.516;2022-11-02T10:52:01;4.28;;;0.90;;
71106;SDS011;58763;47.982;11.516;2022-11-02T10:54:28;4.80;;;0.85;;
71106;SDS011;58763;47.982;11.516;2022-11-02T10:56:53;8.00;;;1.20;;
71106;SDS011;58763;47.982;11.516;2022-11-02T10:59:21;7.40;;;1.25;;
71106;SDS011;58763;47.982;11.516;2022-11-02T11:04:29;5.03;;;0.90;;
71106;SDS011;58763;47.982;11.516;2022-11-02T11:06:57;5.30;;;1.08;;
71106;SDS011;58763;47.982;11.516;2022-11-02T11:09:49;4.05;;;0.90;;
71106;SDS011;58763;47.982;11.516;2022-11-02T11:12:27;5.55;;;1.10;;
71106;SDS011;58763;47.982;11.516;2022-11-02T11:14:57;5.15;;;1.25;;
71106;SDS011;58763;47.982;11.516;2022-11-02T11:17:26;6.10;;;1.20;;
71106;SDS011;58763;47.982;11.516;2022-11-02T11:19:56;6.28;;;1.10;;
71106;SDS011;58763;47.982;11.516;2022-11-02T11:28:38;4.88;;;1.08;;
71106;SDS011;58763;47.982;11.516;2022-11-02T11:31:00;6.97;;;1.10;;
71106;SDS011;58763;47.982;11.516;2022-11-02T11:36:29;5.13;;;1.10;;
71106;SDS011;58763;47.982;11.516;2022-11-02T11:38:58;4.85;;;1.10;;
71106;SDS011;58763;47.982;11.516;2022-11-02T11:41:44;4.55;;;1.00;;
71106;SDS011;58763;47.982;11.516;2022-11-02T11:44:11;6.78;;;1.20;;
71106;SDS011;58763;47.982;11.516;2022-11-02T11:46:39;5.07;;;1.23;;
71106;SDS011;58763;47.982;11.516;2022-11-02T11:49:16;4.78;;;1.10;;
71106;SDS011;58763;47.982;11.516;2022-11-02T11:51:47;6.30;;;0.90;;
71106;SDS011;58763;47.982;11.516;2022-11-02T11:56:54;5.13;;;1.08;;
71106;SDS011;58763;47.982;11.516;2022-11-02T11:59:26;5.63;;;1.20;;
71106;SDS011;58763;47.982;11.516;2022-11-02T12:01:57;4.80;;;0.90;;
71106;SDS011;58763;47.982;11.516;2022-11-02T12:12:25;4.53;;;0.90;;
71106;SDS011;58763;47.982;11.516;2022-11-02T12:26:25;4.78;;;0.88;;
71106;SDS011;58763;47.982;11.516;2022-11-02T12:37:57;4.60;;;1.00;;
71106;SDS011;58763;47.982;11.516;2022-11-02T12:46:20;4.30;;;0.88;;
71106;SDS011;58763;47.982;11.516;2022-11-02T12:51:39;6.50;;;0.93;;
71106;SDS011;58763;47.982;11.516;2022-11-02T12:54:10;3.17;;;0.70;;
71106;SDS011;58763;47.982;11.516;2022-11-02T12:56:48;6.72;;;0.80;;
71106;SDS011;58763;47.982;11.516;2022-11-02T12:59:26;3.83;;;0.70;;
71106;SDS011;58763;47.982;11.516;2022-11-02T13:02:04;5.72;;;0.85;;
71106;SDS011;58763;47.982;11.516;2022-11-02T13:04:38;4.32;;;0.98;;
71106;SDS011;58763;47.982;11.516;2022-11-02T13:07:31;4.03;;;1.08;;
71106;SDS011;58763;47.982;11.516;2022-11-02T13:10:06;6.63;;;1.00;;
71106;SDS011;58763;47.982;11.516;2022-11-02T13:13:04;5.63;;;1.00;;
71106;SDS011;58763;47.982;11.516;2022-11-02T13:15:37;5.95;;;0.85;;
71106;SDS011;58763;47.982;11.516;2022-11-02T13:18:05;6.80;;;1.05;;
71106;SDS011;58763;47.982;11.516;2022-11-02T13:23:38;7.70;;;1.00;;
71106;SDS011;58763;47.982;11.516;2022-11-02T13:28:50;4.97;;;1.10;;
71106;SDS011;58763;47.982;11.516;2022-11-02T13:31:21;4.05;;;0.82;;
71106;SDS011;58763;47.982;11.516;2022-11-02T13:33:53;5.30;;;0.90;;
71106;SDS011;58763;47.982;11.516;2022-11-02T13:36:24;3.55;;;0.75;;
71106;SDS011;58763;47.982;11.516;2022-11-02T13:47:26;4.60;;;0.90;;
71106;SDS011;58763;47.982;11.516;2022-11-02T13:49:57;9.77;;;1.23;;
71106;SDS011;58763;47.982;11.516;2022-11-02T13:52:38;6.82;;;1.20;;
71106;SDS011;58763;47.982;11.516;2022-11-02T13:55:12;5.72;;;1.05;;
71106;SDS011;58763;47.982;11.516;2022-11-02T13:57:45;6.45;;;1.27;;
71106;SDS011;58763;47.982;11.516;2022-11-02T14:02:55;4.78;;;1.05;;
71106;SDS011;58763;47.982;11.516;2022-11-02T14:05:28;5.75;;;1.10;;
71106;SDS011;58763;47.982;11.516;2022-11-02T14:08:04;3.13;;;0.80;;
71106;SDS011;58763;47.982;11.516;2022-11-02T14:10:39;6.88;;;1.10;;
71106;SDS011;58763;47.982;11.516;2022-11-02T14:13:10;6.20;;;0.98;;
71106;SDS011;58763;47.982;11.516;2022-11-02T14:15:37;6.95;;;0.90;;
71106;SDS011;58763;47.982;11.516;2022-11-02T14:18:12;5.90;;;1.20;;
71106;SDS011;58763;47.982;11.516;2022-11-02T14:20:51;5.43;;;1.20;;
71106;SDS011;58763;47.982;11.516;2022-11-02T14:23:30;5.70;;;1.00;;
71106;SDS011;58763;47.982;11.516;2022-11-02T14:26:00;3.67;;;0.90;;
71106;SDS011;58763;47.982;11.516;2022-11-02T14:28:29;8.85;;;1.40;;
71106;SDS011;58763;47.982;11.516;2022-11-02T14:42:11;4.88;;;1.50;;
71106;SDS011;58763;47.982;11.516;2022-11-02T14:47:44;4.28;;;1.20;;
71106;SDS011;58763;47.982;11.516;2022-11-02T14:52:36;4.13;;;1.08;;
71106;SDS011;58763;47.982;11.516;2022-11-02T15:00:22;4.43;;;1.10;;
71106;SDS011;58763;47.982;11.516;2022-11-02T15:02:53;5.85;;;1.10;;
71106;SDS011;58763;47.982;11.516;2022-11-02T15:05:26;7.60;;;1.33;;
71106;SDS011;58763;47.982;11.516;2022-11-02T15:07:56;4.25;;;0.70;;
71106;SDS011;58763;47.982;11.516;2022-11-02T15:21:36;4.80;;;1.10;;
71106;SDS011;58763;47.982;11.516;2022-11-02T15:29:04;4.10;;;1.02;;
71106;SDS011;58763;47.982;11.516;2022-11-02T15:31:32;7.20;;;1.00;;
71106;SDS011;58763;47.982;11.516;2022-11-02T15:34:01;6.10;;;0.98;;
71106;SDS011;58763;47.982;11.516;2022-11-02T15:36:35;4.90;;;0.95;;
71106;SDS011;58763;47.982;11.516;2022-11-02T15:39:03;5.72;;;1.25;;
71106;SDS011;58763;47.982;11.516;2022-11-02T15:41:37;5.63;;;1.47;;
71106;SDS011;58763;47.982;11.516;2022-11-02T15:44:26;5.13;;;1.27;;
71106;SDS011;58763;47.982;11.516;2022-11-02T15:55:39;5.78;;;1.48;;
71106;SDS011;58763;47.982;11.516;2022-11-02T16:03:46;10.95;;;3.25;;
71106;SDS011;58763;47.982;11.516;2022-11-02T16:06:13;12.00;;;3.67;;
71106;SDS011;58763;47.982;11.516;2022-11-02T16:08:39;10.90;;;3.13;;
71106;SDS011;58763;47.982;11.516;2022-11-02T16:13:45;12.75;;;4.47;;
71106;SDS011;58763;47.982;11.516;2022-11-02T16:16:15;62.45;;;34.53;;
71106;SDS011;58763;47.982;11.516;2022-11-02T16:18:42;17.98;;;6.35;;
71106;SDS011;58763;47.982;11.516;2022-11-02T16:21:13;9.77;;;3.28;;
71106;SDS011;58763;47.982;11.516;2022-11-02T16:23:42;7.70;;;2.75;;
71106;SDS011;58763;47.982;11.516;2022-11-02T16:26:14;13.30;;;3.75;;
71106;SDS011;58763;47.982;11.516;2022-11-02T16:28:46;13.02;;;5.10;;
71106;SDS011;58763;47.982;11.516;2022-11-02T16:31:18;29.35;;;13.00;;
71106;SDS011;58763;47.982;11.516;2022-11-02T16:33:49;9.73;;;4.68;;
71106;SDS011;58763;47.982;11.516;2022-11-02T16:36:17;14.35;;;5.70;;
71106;SDS011;58763;47.982;11.516;2022-11-02T16:39:01;11.52;;;4.30;;
71106;SDS011;58763;47.982;11.516;2022-11-02T16:41:46;9.65;;;3.15;;
71106;SDS011;58763;47.982;11.516;2022-11-02T16:47:14;11.52;;;4.10;;
71106;SDS011;58763;47.982;11.516;2022-11-02T16:52:17;32.22;;;15.82;;
71106;SDS011;58763;47.982;11.516;2022-11-02T16:54:45;16.15;;;7.63;;
71106;SDS011;58763;47.982;11.516;2022-11-02T16:57:19;28.80;;;10.43;;
71106;SDS011;58763;47.982;11.516;2022-11-02T17:02:15;9.10;;;4.32;;
71106;SDS011;58763;47.982;11.516;2022-11-02T17:04:42;11.85;;;5.60;;
71106;SDS011;58763;47.982;11.516;2022-11-02T17:07:12;14.80;;;6.15;;
71106;SDS011;58763;47.982;11.516;2022-11-02T17:09:48;13.07;;;4.80;;
71106;SDS011;58763;47.982;11.516;2022-11-02T17:12:18;21.27;;;11.00;;
71106;SDS011;58763;47.982;11.516;2022-11-02T17:14:53;17.95;;;9.65;;
71106;SDS011;58763;47.982;11.516;2022-11-02T17:19:55;23.58;;;11.18;;
71106;SDS011;58763;47.982;11.516;2022-11-02T17:24:46;23.35;;;10.20;;
71106;SDS011;58763;47.982;11.516;2022-11-02T17:27:22;19.33;;;8.65;;
71106;SDS011;58763;47.982;11.516;2022-11-02T17:29:50;17.55;;;9.15;;
71106;SDS011;58763;47.982;11.516;2022-11-02T17:32:16;11.43;;;4.85;;
71106;SDS011;58763;47.982;11.516;2022-11-02T17:34:50;13.07;;;5.47;;
71106;SDS011;58763;47.982;11.516;2022-11-02T17:39:54;17.23;;;8.75;;
71106;SDS011;58763;47.982;11.516;2022-11-02T17:42:22;11.45;;;6.65;;
71106;SDS011;58763;47.982;11.516;2022-11-02T17:47:51;9.75;;;5.10;;
71106;SDS011;58763;47.982;11.516;2022-11-02T17:50:17;11.77;;;6.18;;
71106;SDS011;58763;47.982;11.516;2022-11-02T17:52:43;15.02;;;8.82;;
71106;SDS011;58763;47.982;11.516;2022-11-02T17:55:13;24.60;;;14.10;;
71106;SDS011;58763;47.982;11.516;2022-11-02T17:57:40;31.60;;;17.55;;
71106;SDS011;58763;47.982;11.516;2022-11-02T18:00:05;26.52;;;15.55;;
71106;SDS011;58763;47.982;11.516;2022-11-02T18:02:31;27.30;;;14.77;;
71106;SDS011;58763;47.982;11.516;2022-11-02T18:04:57;25.45;;;15.43;;
71106;SDS011;58763;47.982;11.516;2022-11-02T18:07:23;37.38;;;21.98;;
71106;SDS011;58763;47.982;11.516;2022-11-02T18:09:48;37.15;;;21.40;;